sensor_id;sensor_type;location;lat;lon;timestamp;temperature;humidity
7388;DHT22;3735;50.136;11.062;2023-03-26T00:00:47;8.10;99.90
7388;DHT22;3735;50.136;11.062;2023-03-26T00:03:16;8.10;99.90
7388;DHT22;3735;50.136;11.062;2023-03-26T00:05:43;8.10;99.90
7388;DHT22;3735;50.136;11.062;2023-03-26T00:08:10;8.10;99.90
7388;DHT22;3735;50.136;11.062;2023-03-26T00:10:38;8.10;99.90
7388;DHT22;3735;50.136;11.062;2023-03-26T00:13:06;8.10;99.90
7388;DHT22;3735;50.136;11.062;2023-03-26T00:15:33;8.10;99.90
7388;DHT22;3735;50.136;11.062;2023-03-26T00:18:00;8.10;99.90
7388;DHT22;3735;50.136;11.062;2023-03-26T00:20:28;8.10;99.90
7388;DHT22;3735;50.136;11.062;2023-03-26T00:22:57;8.10;99.90
7388;DHT22;3735;50.136;11.062;2023-03-26T00:25:26;8.00;99.90
7388;DHT22;3735;50.136;11.062;2023-03-26T00:27:52;7.80;99.90
7388;DHT22;3735;50.136;11.062;2023-03-26T00:30:18;7.60;99.90
7388;DHT22;3735;50.136;11.062;2023-03-26T00:32:45;7.50;99.90
7388;DHT22;3735;50.136;11.062;2023-03-26T00:35:11;7.40;99.90
7388;DHT22;3735;50.136;11.062;2023-03-26T00:37:38;7.30;99.90
7388;DHT22;3735;50.136;11.062;2023-03-26T00:40:07;7.20;99.90
7388;DHT22;3735;50.136;11.062;2023-03-26T00:42:36;7.20;99.90
7388;DHT22;3735;50.136;11.062;2023-03-26T00:45:06;7.20;99.90
7388;DHT22;3735;50.136;11.062;2023-03-26T00:47:32;7.30;99.90
7388;DHT22;3735;50.136;11.062;2023-03-26T00:49:59;7.30;99.90
7388;DHT22;3735;50.136;11.062;2023-03-26T00:52:25;7.40;99.90
7388;DHT22;3735;50.136;11.062;2023-03-26T00:54:53;7.40;99.90
7388;DHT22;3735;50.136;11.062;2023-03-26T00:57:20;7.30;99.90
7388;DHT22;3735;50.136;11.062;2023-03-26T00:59:48;7.30;99.90
7388;DHT22;3735;50.136;11.062;2023-03-26T01:02:16;7.20;99.90
7388;DHT22;3735;50.136;11.062;2023-03-26T01:04:55;7.10;99.90
7388;DHT22;3735;50.136;11.062;2023-03-26T01:07:24;7.10;99.90
7388;DHT22;3735;50.136;11.062;2023-03-26T01:09:56;7.10;99.90
7388;DHT22;3735;50.136;11.062;2023-03-26T01:12:26;7.00;99.90
7388;DHT22;3735;50.136;11.062;2023-03-26T01:14:58;7.00;99.90
7388;DHT22;3735;50.136;11.062;2023-03-26T01:17:27;6.90;99.90
7388;DHT22;3735;50.136;11.062;2023-03-26T01:20:30;6.90;99.90
7388;DHT22;3735;50.136;11.062;2023-03-26T01:23:05;6.80;99.90
7388;DHT22;3735;50.136;11.062;2023-03-26T01:25:39;6.90;99.90
7388;DHT22;3735;50.136;11.062;2023-03-26T01:28:11;7.00;99.90
7388;DHT22;3735;50.136;11.062;2023-03-26T01:30:41;7.00;99.90
7388;DHT22;3735;50.136;11.062;2023-03-26T01:33:41;7.10;99.90
7388;DHT22;3735;50.136;11.062;2023-03-26T01:37:03;7.10;99.90
7388;DHT22;3735;50.136;11.062;2023-03-26T01:39:31;7.20;99.90
7388;DHT22;3735;50.136;11.062;2023-03-26T01:42:14;7.30;99.90
7388;DHT22;3735;50.136;11.062;2023-03-26T01:45:27;7.40;99.90
7388;DHT22;3735;50.136;11.062;2023-03-26T01:47:50;7.40;99.90
7388;DHT22;3735;50.136;11.062;2023-03-26T01:50:17;7.40;99.90
7388;DHT22;3735;50.136;11.062;2023-03-26T01:52:43;7.40;99.90
7388;DHT22;3735;50.136;11.062;2023-03-26T01:55:09;7.40;99.90
7388;DHT22;3735;50.136;11.062;2023-03-26T01:57:55;7.40;99.90
7388;DHT22;3735;50.136;11.062;2023-03-26T02:00:32;7.50;99.90
7388;DHT22;3735;50.136;11.062;2023-03-26T02:03:31;7.50;99.90
7388;DHT22;3735;50.136;11.062;2023-03-26T02:06:08;7.50;99.90
7388;DHT22;3735;50.136;11.062;2023-03-26T02:09:00;7.50;99.90
7388;DHT22;3735;50.136;11.062;2023-03-26T02:11:29;7.50;99.90
7388;DHT22;3735;50.136;11.062;2023-03-26T02:13:55;7.50;99.90
7388;DHT22;3735;50.136;11.062;2023-03-26T02:16:22;7.40;99.90
7388;DHT22;3735;50.136;11.062;2023-03-26T02:18:48;7.30;99.90
7388;DHT22;3735;50.136;11.062;2023-03-26T02:21:22;7.30;99.90
7388;DHT22;3735;50.136;11.062;2023-03-26T02:23:52;7.20;99.90
7388;DHT22;3735;50.136;11.062;2023-03-26T02:26:30;7.30;99.90
7388;DHT22;3735;50.136;11.062;2023-03-26T02:28:59;7.30;99.90
7388;DHT22;3735;50.136;11.062;2023-03-26T02:31:26;7.20;99.90
7388;DHT22;3735;50.136;11.062;2023-03-26T02:33:53;7.30;99.90
7388;DHT22;3735;50.136;11.062;2023-03-26T02:36:20;7.30;99.90
7388;DHT22;3735;50.136;11.062;2023-03-26T02:38:49;7.30;99.90
7388;DHT22;3735;50.136;11.062;2023-03-26T02:41:16;7.30;99.90
7388;DHT22;3735;50.136;11.062;2023-03-26T02:43:42;7.20;99.90
7388;DHT22;3735;50.136;11.062;2023-03-26T02:46:08;7.20;99.90
7388;DHT22;3735;50.136;11.062;2023-03-26T02:48:34;7.20;99.90
7388;DHT22;3735;50.136;11.062;2023-03-26T02:51:01;7.20;99.90
7388;DHT22;3735;50.136;11.062;2023-03-26T02:53:27;7.30;99.90
7388;DHT22;3735;50.136;11.062;2023-03-26T02:55:56;7.40;99.90
7388;DHT22;3735;50.136;11.062;2023-03-26T02:58:23;7.40;99.90
7388;DHT22;3735;50.136;11.062;2023-03-26T03:00:53;7.40;99.90
7388;DHT22;3735;50.136;11.062;2023-03-26T03:03:25;7.50;99.90
7388;DHT22;3735;50.136;11.062;2023-03-26T03:05:52;7.50;99.90
7388;DHT22;3735;50.136;11.062;2023-03-26T03:08:24;7.50;99.90
7388;DHT22;3735;50.136;11.062;2023-03-26T03:11:00;7.50;99.90
7388;DHT22;3735;50.136;11.062;2023-03-26T03:13:27;7.50;99.90
7388;DHT22;3735;50.136;11.062;2023-03-26T03:15:53;7.40;99.90
7388;DHT22;3735;50.136;11.062;2023-03-26T03:18:20;7.40;99.90
7388;DHT22;3735;50.136;11.062;2023-03-26T03:20:46;7.40;99.90
7388;DHT22;3735;50.136;11.062;2023-03-26T03:23:12;7.40;99.90
7388;DHT22;3735;50.136;11.062;2023-03-26T03:25:38;7.40;99.90
7388;DHT22;3735;50.136;11.062;2023-03-26T03:28:05;7.30;99.90
7388;DHT22;3735;50.136;11.062;2023-03-26T03:30:32;7.40;99.90
7388;DHT22;3735;50.136;11.062;2023-03-26T03:32:57;7.40;99.90
7388;DHT22;3735;50.136;11.062;2023-03-26T03:35:24;7.30;99.90
7388;DHT22;3735;50.136;11.062;2023-03-26T03:37:52;7.30;99.90
7388;DHT22;3735;50.136;11.062;2023-03-26T03:40:18;7.40;99.90
7388;DHT22;3735;50.136;11.062;2023-03-26T03:42:45;7.40;99.90
7388;DHT22;3735;50.136;11.062;2023-03-26T03:45:11;7.40;99.90
7388;DHT22;3735;50.136;11.062;2023-03-26T03:47:37;7.40;99.90
7388;DHT22;3735;50.136;11.062;2023-03-26T03:50:04;7.50;99.90
7388;DHT22;3735;50.136;11.062;2023-03-26T03:52:31;7.50;99.90
7388;DHT22;3735;50.136;11.062;2023-03-26T03:54:57;7.50;99.90
7388;DHT22;3735;50.136;11.062;2023-03-26T03:57:25;7.40;99.90
7388;DHT22;3735;50.136;11.062;2023-03-26T03:59:51;7.40;99.90
7388;DHT22;3735;50.136;11.062;2023-03-26T04:02:18;7.40;99.90
7388;DHT22;3735;50.136;11.062;2023-03-26T04:04:59;7.40;99.90
7388;DHT22;3735;50.136;11.062;2023-03-26T04:07:26;7.40;99.90
7388;DHT22;3735;50.136;11.062;2023-03-26T04:09:55;7.40;99.90
7388;DHT22;3735;50.136;11.062;2023-03-26T04:12:25;7.50;99.90
7388;DHT22;3735;50.136;11.062;2023-03-26T04:14:52;7.50;99.90
7388;DHT22;3735;50.136;11.062;2023-03-26T04:17:19;7.50;99.90
7388;DHT22;3735;50.136;11.062;2023-03-26T04:19:47;7.50;99.90
7388;DHT22;3735;50.136;11.062;2023-03-26T04:22:17;7.50;99.90
7388;DHT22;3735;50.136;11.062;2023-03-26T04:24:44;7.50;99.90
7388;DHT22;3735;50.136;11.062;2023-03-26T04:27:14;7.50;99.90
7388;DHT22;3735;50.136;11.062;2023-03-26T04:29:44;7.50;99.90
7388;DHT22;3735;50.136;11.062;2023-03-26T04:32:25;7.40;99.90
7388;DHT22;3735;50.136;11.062;2023-03-26T04:34:55;7.40;99.90
7388;DHT22;3735;50.136;11.062;2023-03-26T04:37:33;7.40;99.90
7388;DHT22;3735;50.136;11.062;2023-03-26T04:40:06;7.30;99.90
7388;DHT22;3735;50.136;11.062;2023-03-26T04:42:36;7.40;99.90
7388;DHT22;3735;50.136;11.062;2023-03-26T04:45:06;7.40;99.90
7388;DHT22;3735;50.136;11.062;2023-03-26T04:47:33;7.40;99.90
7388;DHT22;3735;50.136;11.062;2023-03-26T04:50:05;7.30;99.90
7388;DHT22;3735;50.136;11.062;2023-03-26T04:52:32;7.30;99.90
7388;DHT22;3735;50.136;11.062;2023-03-26T04:54:59;7.30;99.90
7388;DHT22;3735;50.136;11.062;2023-03-26T04:57:33;7.30;99.90
7388;DHT22;3735;50.136;11.062;2023-03-26T05:00:06;7.30;99.90
7388;DHT22;3735;50.136;11.062;2023-03-26T05:02:45;7.30;99.90
7388;DHT22;3735;50.136;11.062;2023-03-26T05:05:14;7.30;99.90
7388;DHT22;3735;50.136;11.062;2023-03-26T05:07:41;7.30;99.90
7388;DHT22;3735;50.136;11.062;2023-03-26T05:10:10;7.30;99.90
7388;DHT22;3735;50.136;11.062;2023-03-26T05:12:37;7.30;99.90
7388;DHT22;3735;50.136;11.062;2023-03-26T05:15:04;7.30;99.90
7388;DHT22;3735;50.136;11.062;2023-03-26T05:17:30;7.30;99.90
7388;DHT22;3735;50.136;11.062;2023-03-26T05:19:59;7.20;99.90
7388;DHT22;3735;50.136;11.062;2023-03-26T05:22:26;7.20;99.90
7388;DHT22;3735;50.136;11.062;2023-03-26T05:24:51;7.20;99.90
7388;DHT22;3735;50.136;11.062;2023-03-26T05:27:18;7.20;99.90
7388;DHT22;3735;50.136;11.062;2023-03-26T05:29:45;7.20;99.90
7388;DHT22;3735;50.136;11.062;2023-03-26T05:32:11;7.20;99.90
7388;DHT22;3735;50.136;11.062;2023-03-26T05:34:40;7.20;99.90
7388;DHT22;3735;50.136;11.062;2023-03-26T05:37:06;7.30;99.90
7388;DHT22;3735;50.136;11.062;2023-03-26T05:39:33;7.20;99.90
7388;DHT22;3735;50.136;11.062;2023-03-26T05:42:00;7.30;99.90
7388;DHT22;3735;50.136;11.062;2023-03-26T05:44:25;7.30;99.90
7388;DHT22;3735;50.136;11.062;2023-03-26T05:46:51;7.30;99.90
7388;DHT22;3735;50.136;11.062;2023-03-26T05:49:17;7.30;99.90
7388;DHT22;3735;50.136;11.062;2023-03-26T05:51:43;7.40;99.90
7388;DHT22;3735;50.136;11.062;2023-03-26T05:54:09;7.40;99.90
7388;DHT22;3735;50.136;11.062;2023-03-26T05:56:34;7.50;99.90
7388;DHT22;3735;50.136;11.062;2023-03-26T05:59:00;7.50;99.90
7388;DHT22;3735;50.136;11.062;2023-03-26T06:01:26;7.50;99.90
7388;DHT22;3735;50.136;11.062;2023-03-26T06:03:53;7.60;99.90
7388;DHT22;3735;50.136;11.062;2023-03-26T06:06:19;7.60;99.90
7388;DHT22;3735;50.136;11.062;2023-03-26T06:08:48;7.70;99.90
7388;DHT22;3735;50.136;11.062;2023-03-26T06:11:16;7.80;99.90
7388;DHT22;3735;50.136;11.062;2023-03-26T06:13:44;7.80;99.90
7388;DHT22;3735;50.136;11.062;2023-03-26T06:16:12;8.00;99.90
7388;DHT22;3735;50.136;11.062;2023-03-26T06:18:39;8.00;99.90
7388;DHT22;3735;50.136;11.062;2023-03-26T06:21:05;8.10;99.90
7388;DHT22;3735;50.136;11.062;2023-03-26T06:23:31;8.10;99.90
7388;DHT22;3735;50.136;11.062;2023-03-26T06:25:58;8.10;99.90
7388;DHT22;3735;50.136;11.062;2023-03-26T06:28:24;8.20;99.90
7388;DHT22;3735;50.136;11.062;2023-03-26T06:30:51;8.20;99.90
7388;DHT22;3735;50.136;11.062;2023-03-26T06:33:17;8.20;99.90
7388;DHT22;3735;50.136;11.062;2023-03-26T06:35:44;8.20;99.90
7388;DHT22;3735;50.136;11.062;2023-03-26T06:38:11;8.20;99.90
7388;DHT22;3735;50.136;11.062;2023-03-26T06:40:37;8.30;99.90
7388;DHT22;3735;50.136;11.062;2023-03-26T06:43:03;8.30;99.90
7388;DHT22;3735;50.136;11.062;2023-03-26T06:45:29;8.40;99.90
7388;DHT22;3735;50.136;11.062;2023-03-26T06:47:56;8.50;99.90
7388;DHT22;3735;50.136;11.062;2023-03-26T06:50:22;8.60;99.90
7388;DHT22;3735;50.136;11.062;2023-03-26T06:52:48;8.70;99.90
7388;DHT22;3735;50.136;11.062;2023-03-26T06:55:15;8.80;99.90
7388;DHT22;3735;50.136;11.062;2023-03-26T06:57:41;8.90;99.90
7388;DHT22;3735;50.136;11.062;2023-03-26T07:00:10;9.00;99.90
7388;DHT22;3735;50.136;11.062;2023-03-26T07:02:36;9.10;99.90
7388;DHT22;3735;50.136;11.062;2023-03-26T07:05:02;9.10;99.90
7388;DHT22;3735;50.136;11.062;2023-03-26T07:07:28;9.20;99.90
7388;DHT22;3735;50.136;11.062;2023-03-26T07:09:54;9.20;99.90
7388;DHT22;3735;50.136;11.062;2023-03-26T07:12:20;9.30;99.90
7388;DHT22;3735;50.136;11.062;2023-03-26T07:14:46;9.40;99.90
7388;DHT22;3735;50.136;11.062;2023-03-26T07:17:12;9.50;99.90
7388;DHT22;3735;50.136;11.062;2023-03-26T07:19:37;9.60;99.90
7388;DHT22;3735;50.136;11.062;2023-03-26T07:22:03;9.70;99.90
7388;DHT22;3735;50.136;11.062;2023-03-26T07:24:30;9.80;99.90
7388;DHT22;3735;50.136;11.062;2023-03-26T07:30:18;10.00;99.90
7388;DHT22;3735;50.136;11.062;2023-03-26T07:32:52;10.10;99.90
7388;DHT22;3735;50.136;11.062;2023-03-26T07:35:31;10.20;99.90
7388;DHT22;3735;50.136;11.062;2023-03-26T07:46:20;10.30;99.90
7388;DHT22;3735;50.136;11.062;2023-03-26T07:48:52;10.30;99.90
7388;DHT22;3735;50.136;11.062;2023-03-26T07:51:19;10.40;99.90
7388;DHT22;3735;50.136;11.062;2023-03-26T07:53:45;10.30;99.90
7388;DHT22;3735;50.136;11.062;2023-03-26T08:08:17;10.80;99.90
7388;DHT22;3735;50.136;11.062;2023-03-26T08:17:10;10.80;99.90
7388;DHT22;3735;50.136;11.062;2023-03-26T08:22:26;11.00;99.90
7388;DHT22;3735;50.136;11.062;2023-03-26T08:30:28;11.50;99.90
7388;DHT22;3735;50.136;11.062;2023-03-26T08:32:59;11.60;99.90
7388;DHT22;3735;50.136;11.062;2023-03-26T08:35:36;11.60;99.90
7388;DHT22;3735;50.136;11.062;2023-03-26T08:38:10;11.50;99.90
7388;DHT22;3735;50.136;11.062;2023-03-26T08:41:05;11.50;99.90
7388;DHT22;3735;50.136;11.062;2023-03-26T08:52:51;10.40;99.90
7388;DHT22;3735;50.136;11.062;2023-03-26T09:01:30;9.80;99.90
7388;DHT22;3735;50.136;11.062;2023-03-26T09:08:00;10.30;99.90
7388;DHT22;3735;50.136;11.062;2023-03-26T09:38:35;10.60;99.90
7388;DHT22;3735;50.136;11.062;2023-03-26T09:47:49;10.30;99.90
7388;DHT22;3735;50.136;11.062;2023-03-26T10:11:13;9.00;99.90
7388;DHT22;3735;50.136;11.062;2023-03-26T10:31:47;7.50;99.90
7388;DHT22;3735;50.136;11.062;2023-03-26T10:40:22;7.60;99.90
7388;DHT22;3735;50.136;11.062;2023-03-26T10:49:02;7.50;99.90
7388;DHT22;3735;50.136;11.062;2023-03-26T10:52:03;7.40;99.90
7388;DHT22;3735;50.136;11.062;2023-03-26T10:57:17;7.30;99.90
7388;DHT22;3735;50.136;11.062;2023-03-26T10:59:54;7.40;99.90
7388;DHT22;3735;50.136;11.062;2023-03-26T11:02:30;7.30;99.90
7388;DHT22;3735;50.136;11.062;2023-03-26T11:05:45;7.30;99.90
7388;DHT22;3735;50.136;11.062;2023-03-26T11:31:04;7.40;99.90
7388;DHT22;3735;50.136;11.062;2023-03-26T11:33:46;7.30;99.90
7388;DHT22;3735;50.136;11.062;2023-03-26T11:36:20;7.30;99.90
7388;DHT22;3735;50.136;11.062;2023-03-26T11:38:50;7.40;99.90
7388;DHT22;3735;50.136;11.062;2023-03-26T11:41:22;7.50;99.90
7388;DHT22;3735;50.136;11.062;2023-03-26T11:43:55;7.50;99.90
7388;DHT22;3735;50.136;11.062;2023-03-26T11:46:25;7.60;99.90
7388;DHT22;3735;50.136;11.062;2023-03-26T11:48:56;7.60;99.90
7388;DHT22;3735;50.136;11.062;2023-03-26T11:51:37;7.60;99.90
7388;DHT22;3735;50.136;11.062;2023-03-26T11:54:06;7.90;99.90
7388;DHT22;3735;50.136;11.062;2023-03-26T11:56:50;8.00;99.90
7388;DHT22;3735;50.136;11.062;2023-03-26T11:59:38;8.10;99.90
7388;DHT22;3735;50.136;11.062;2023-03-26T12:04:49;8.30;99.90
7388;DHT22;3735;50.136;11.062;2023-03-26T12:07:30;8.20;99.90
7388;DHT22;3735;50.136;11.062;2023-03-26T12:12:40;7.90;99.90
7388;DHT22;3735;50.136;11.062;2023-03-26T12:15:17;7.90;99.90
7388;DHT22;3735;50.136;11.062;2023-03-26T12:17:47;7.80;99.90
7388;DHT22;3735;50.136;11.062;2023-03-26T12:22:50;7.90;99.90
7388;DHT22;3735;50.136;11.062;2023-03-26T12:30:58;8.70;99.90
7388;DHT22;3735;50.136;11.062;2023-03-26T12:33:33;9.20;99.90
7388;DHT22;3735;50.136;11.062;2023-03-26T12:36:24;10.00;99.90
7388;DHT22;3735;50.136;11.062;2023-03-26T12:38:54;11.10;99.90
7388;DHT22;3735;50.136;11.062;2023-03-26T12:41:33;12.50;99.90
7388;DHT22;3735;50.136;11.062;2023-03-26T12:44:21;13.90;99.90
7388;DHT22;3735;50.136;11.062;2023-03-26T12:46:49;14.60;99.90
7388;DHT22;3735;50.136;11.062;2023-03-26T12:49:19;14.90;99.90
7388;DHT22;3735;50.136;11.062;2023-03-26T12:52:03;14.30;99.90
7388;DHT22;3735;50.136;11.062;2023-03-26T12:57:23;12.70;99.90
7388;DHT22;3735;50.136;11.062;2023-03-26T13:00:24;12.20;99.90
7388;DHT22;3735;50.136;11.062;2023-03-26T13:05:55;11.20;99.90
7388;DHT22;3735;50.136;11.062;2023-03-26T13:15:02;12.20;99.90
7388;DHT22;3735;50.136;11.062;2023-03-26T13:29:49;12.60;99.90
7388;DHT22;3735;50.136;11.062;2023-03-26T13:35:27;12.90;99.90
7388;DHT22;3735;50.136;11.062;2023-03-26T13:45:53;13.20;99.90
7388;DHT22;3735;50.136;11.062;2023-03-26T13:48:29;12.40;99.90
7388;DHT22;3735;50.136;11.062;2023-03-26T13:51:20;12.40;99.90
7388;DHT22;3735;50.136;11.062;2023-03-26T13:56:39;14.40;99.90
7388;DHT22;3735;50.136;11.062;2023-03-26T13:59:30;15.60;99.90
7388;DHT22;3735;50.136;11.062;2023-03-26T14:02:24;16.40;99.90
7388;DHT22;3735;50.136;11.062;2023-03-26T14:05:03;15.20;99.90
7388;DHT22;3735;50.136;11.062;2023-03-26T14:07:39;15.40;99.90
7388;DHT22;3735;50.136;11.062;2023-03-26T14:10:22;15.10;99.90
7388;DHT22;3735;50.136;11.062;2023-03-26T14:13:01;14.40;99.90
7388;DHT22;3735;50.136;11.062;2023-03-26T14:16:26;14.00;99.90
7388;DHT22;3735;50.136;11.062;2023-03-26T14:28:01;14.20;99.90
7388;DHT22;3735;50.136;11.062;2023-03-26T14:39:38;12.50;99.90
7388;DHT22;3735;50.136;11.062;2023-03-26T14:45:39;11.90;99.90
7388;DHT22;3735;50.136;11.062;2023-03-26T14:54:12;11.10;99.90
7388;DHT22;3735;50.136;11.062;2023-03-26T15:14:42;9.20;99.90
7388;DHT22;3735;50.136;11.062;2023-03-26T15:35:35;8.30;99.90
7388;DHT22;3735;50.136;11.062;2023-03-26T15:38:21;8.30;99.90
7388;DHT22;3735;50.136;11.062;2023-03-26T15:54:49;9.50;99.90
7388;DHT22;3735;50.136;11.062;2023-03-26T15:57:31;9.30;99.90
7388;DHT22;3735;50.136;11.062;2023-03-26T16:00:22;9.10;99.90
7388;DHT22;3735;50.136;11.062;2023-03-26T16:11:12;8.70;99.90
7388;DHT22;3735;50.136;11.062;2023-03-26T16:13:48;8.70;99.90
7388;DHT22;3735;50.136;11.062;2023-03-26T16:16:23;8.70;99.90
7388;DHT22;3735;50.136;11.062;2023-03-26T16:22:05;8.90;99.90
7388;DHT22;3735;50.136;11.062;2023-03-26T16:24:39;9.00;99.90
7388;DHT22;3735;50.136;11.062;2023-03-26T16:33:15;10.70;99.90
7388;DHT22;3735;50.136;11.062;2023-03-26T16:38:23;12.40;99.90
7388;DHT22;3735;50.136;11.062;2023-03-26T16:41:25;11.90;99.90
7388;DHT22;3735;50.136;11.062;2023-03-26T16:44:09;11.10;99.90
7388;DHT22;3735;50.136;11.062;2023-03-26T16:47:05;10.40;99.90
7388;DHT22;3735;50.136;11.062;2023-03-26T16:55:01;9.20;99.90
7388;DHT22;3735;50.136;11.062;2023-03-26T16:57:54;9.10;99.90
7388;DHT22;3735;50.136;11.062;2023-03-26T17:00:50;8.90;99.90
7388;DHT22;3735;50.136;11.062;2023-03-26T17:12:57;7.90;99.90
7388;DHT22;3735;50.136;11.062;2023-03-26T17:15:49;7.60;99.90
7388;DHT22;3735;50.136;11.062;2023-03-26T17:24:39;7.00;99.90
7388;DHT22;3735;50.136;11.062;2023-03-26T17:27:37;6.80;99.90
7388;DHT22;3735;50.136;11.062;2023-03-26T17:33:20;6.50;99.90
7388;DHT22;3735;50.136;11.062;2023-03-26T17:41:07;6.10;99.90
7388;DHT22;3735;50.136;11.062;2023-03-26T17:43:50;5.90;99.90
7388;DHT22;3735;50.136;11.062;2023-03-26T17:46:38;5.80;99.90
7388;DHT22;3735;50.136;11.062;2023-03-26T17:54:39;5.50;99.90
7388;DHT22;3735;50.136;11.062;2023-03-26T17:57:15;5.40;99.90
7388;DHT22;3735;50.136;11.062;2023-03-26T18:00:05;5.30;99.90
7388;DHT22;3735;50.136;11.062;2023-03-26T18:02:37;5.20;99.90
7388;DHT22;3735;50.136;11.062;2023-03-26T18:05:11;5.20;99.90
7388;DHT22;3735;50.136;11.062;2023-03-26T18:16:46;5.10;99.90
7388;DHT22;3735;50.136;11.062;2023-03-26T18:19:17;5.10;99.90
7388;DHT22;3735;50.136;11.062;2023-03-26T18:21:48;5.10;99.90
7388;DHT22;3735;50.136;11.062;2023-03-26T18:24:20;5.10;99.90
7388;DHT22;3735;50.136;11.062;2023-03-26T18:27:25;5.00;99.90
7388;DHT22;3735;50.136;11.062;2023-03-26T18:30:20;4.90;99.90
7388;DHT22;3735;50.136;11.062;2023-03-26T18:33:00;4.80;99.90
7388;DHT22;3735;50.136;11.062;2023-03-26T18:35:50;4.90;99.90
7388;DHT22;3735;50.136;11.062;2023-03-26T18:38:21;4.80;99.90
7388;DHT22;3735;50.136;11.062;2023-03-26T18:40:50;4.80;99.90
7388;DHT22;3735;50.136;11.062;2023-03-26T18:43:20;5.00;99.90
7388;DHT22;3735;50.136;11.062;2023-03-26T18:45:49;5.10;99.90
7388;DHT22;3735;50.136;11.062;2023-03-26T18:48:21;5.20;99.90
7388;DHT22;3735;50.136;11.062;2023-03-26T18:51:01;5.20;99.90
7388;DHT22;3735;50.136;11.062;2023-03-26T18:53:38;5.30;99.90
7388;DHT22;3735;50.136;11.062;2023-03-26T18:56:36;5.40;99.90
7388;DHT22;3735;50.136;11.062;2023-03-26T18:59:10;5.70;99.90
7388;DHT22;3735;50.136;11.062;2023-03-26T19:01:46;5.60;99.90
7388;DHT22;3735;50.136;11.062;2023-03-26T19:04:14;5.40;99.90
7388;DHT22;3735;50.136;11.062;2023-03-26T19:06:42;5.30;99.90
7388;DHT22;3735;50.136;11.062;2023-03-26T19:09:09;5.20;99.90
7388;DHT22;3735;50.136;11.062;2023-03-26T19:11:37;5.10;99.90
7388;DHT22;3735;50.136;11.062;2023-03-26T19:14:11;5.00;99.90
7388;DHT22;3735;50.136;11.062;2023-03-26T19:16:40;5.00;99.90
7388;DHT22;3735;50.136;11.062;2023-03-26T19:19:19;5.00;99.90
7388;DHT22;3735;50.136;11.062;2023-03-26T19:21:48;5.00;99.90
7388;DHT22;3735;50.136;11.062;2023-03-26T19:24:17;5.00;99.90
7388;DHT22;3735;50.136;11.062;2023-03-26T19:26:45;5.00;99.90
7388;DHT22;3735;50.136;11.062;2023-03-26T19:29:19;4.90;99.90
7388;DHT22;3735;50.136;11.062;2023-03-26T19:31:51;4.90;99.90
7388;DHT22;3735;50.136;11.062;2023-03-26T19:34:33;4.90;99.90
7388;DHT22;3735;50.136;11.062;2023-03-26T19:37:21;4.90;99.90
7388;DHT22;3735;50.136;11.062;2023-03-26T19:39:54;4.90;99.90
7388;DHT22;3735;50.136;11.062;2023-03-26T19:42:29;4.90;99.90
7388;DHT22;3735;50.136;11.062;2023-03-26T19:44:58;4.90;99.90
7388;DHT22;3735;50.136;11.062;2023-03-26T19:47:41;4.90;99.90
7388;DHT22;3735;50.136;11.062;2023-03-26T19:50:32;4.90;99.90
7388;DHT22;3735;50.136;11.062;2023-03-26T19:53:28;4.80;99.90
7388;DHT22;3735;50.136;11.062;2023-03-26T19:56:08;4.80;99.90
7388;DHT22;3735;50.136;11.062;2023-03-26T19:58:40;4.80;99.90
7388;DHT22;3735;50.136;11.062;2023-03-26T20:01:15;4.80;99.90
7388;DHT22;3735;50.136;11.062;2023-03-26T20:03:45;4.70;99.90
7388;DHT22;3735;50.136;11.062;2023-03-26T20:06:15;4.80;99.90
7388;DHT22;3735;50.136;11.062;2023-03-26T20:08:42;4.80;99.90
7388;DHT22;3735;50.136;11.062;2023-03-26T20:11:14;4.80;99.90
7388;DHT22;3735;50.136;11.062;2023-03-26T20:13:43;4.90;99.90
7388;DHT22;3735;50.136;11.062;2023-03-26T20:16:15;4.90;99.90
7388;DHT22;3735;50.136;11.062;2023-03-26T20:18:53;4.90;99.90
7388;DHT22;3735;50.136;11.062;2023-03-26T20:21:30;4.90;99.90
7388;DHT22;3735;50.136;11.062;2023-03-26T20:23:57;5.00;99.90
7388;DHT22;3735;50.136;11.062;2023-03-26T20:26:23;5.00;99.90
7388;DHT22;3735;50.136;11.062;2023-03-26T20:28:50;5.00;99.90
7388;DHT22;3735;50.136;11.062;2023-03-26T20:31:22;5.00;99.90
7388;DHT22;3735;50.136;11.062;2023-03-26T20:33:51;5.10;99.90
7388;DHT22;3735;50.136;11.062;2023-03-26T20:36:18;5.10;99.90
7388;DHT22;3735;50.136;11.062;2023-03-26T20:38:45;5.10;99.90
7388;DHT22;3735;50.136;11.062;2023-03-26T20:41:20;5.10;99.90
7388;DHT22;3735;50.136;11.062;2023-03-26T20:43:50;5.20;99.90
7388;DHT22;3735;50.136;11.062;2023-03-26T20:46:19;5.20;99.90
7388;DHT22;3735;50.136;11.062;2023-03-26T20:48:46;5.20;99.90
7388;DHT22;3735;50.136;11.062;2023-03-26T20:51:13;5.20;99.90
7388;DHT22;3735;50.136;11.062;2023-03-26T20:53:43;5.20;99.90
7388;DHT22;3735;50.136;11.062;2023-03-26T20:56:18;5.20;99.90
7388;DHT22;3735;50.136;11.062;2023-03-26T20:58:45;5.10;99.90
7388;DHT22;3735;50.136;11.062;2023-03-26T21:01:17;5.10;99.90
7388;DHT22;3735;50.136;11.062;2023-03-26T21:03:43;5.10;99.90
7388;DHT22;3735;50.136;11.062;2023-03-26T21:06:12;5.10;99.90
7388;DHT22;3735;50.136;11.062;2023-03-26T21:08:39;5.20;99.90
7388;DHT22;3735;50.136;11.062;2023-03-26T21:14:34;5.30;99.90
7388;DHT22;3735;50.136;11.062;2023-03-26T21:17:10;5.30;99.90
7388;DHT22;3735;50.136;11.062;2023-03-26T21:19:39;5.30;99.90
7388;DHT22;3735;50.136;11.062;2023-03-26T21:25:14;5.50;99.90
7388;DHT22;3735;50.136;11.062;2023-03-26T21:27:59;5.50;99.90
7388;DHT22;3735;50.136;11.062;2023-03-26T21:30:37;5.60;99.90
7388;DHT22;3735;50.136;11.062;2023-03-26T21:33:04;5.60;99.90
7388;DHT22;3735;50.136;11.062;2023-03-26T21:35:30;5.60;99.90
7388;DHT22;3735;50.136;11.062;2023-03-26T21:37:58;5.60;99.90
7388;DHT22;3735;50.136;11.062;2023-03-26T21:40:26;5.60;99.90
7388;DHT22;3735;50.136;11.062;2023-03-26T21:42:52;5.60;99.90
7388;DHT22;3735;50.136;11.062;2023-03-26T21:45:20;5.60;99.90
7388;DHT22;3735;50.136;11.062;2023-03-26T21:47:46;5.60;99.90
7388;DHT22;3735;50.136;11.062;2023-03-26T21:50:18;5.60;99.90
7388;DHT22;3735;50.136;11.062;2023-03-26T21:52:46;5.60;99.90
7388;DHT22;3735;50.136;11.062;2023-03-26T21:55:14;5.60;99.90
7388;DHT22;3735;50.136;11.062;2023-03-26T22:07:11;5.60;99.90
7388;DHT22;3735;50.136;11.062;2023-03-26T22:09:40;5.60;99.90
7388;DHT22;3735;50.136;11.062;2023-03-26T22:12:07;5.60;99.90
7388;DHT22;3735;50.136;11.062;2023-03-26T22:14:35;5.60;99.90
7388;DHT22;3735;50.136;11.062;2023-03-26T22:17:01;5.60;99.90
7388;DHT22;3735;50.136;11.062;2023-03-26T22:19:27;5.60;99.90
7388;DHT22;3735;50.136;11.062;2023-03-26T22:21:53;5.60;99.90
7388;DHT22;3735;50.136;11.062;2023-03-26T22:24:19;5.60;99.90
7388;DHT22;3735;50.136;11.062;2023-03-26T22:26:45;5.60;99.90
7388;DHT22;3735;50.136;11.062;2023-03-26T22:29:12;5.60;99.90
7388;DHT22;3735;50.136;11.062;2023-03-26T22:31:39;5.60;99.90
7388;DHT22;3735;50.136;11.062;2023-03-26T22:34:05;5.70;99.90
7388;DHT22;3735;50.136;11.062;2023-03-26T22:36:32;5.60;99.90
7388;DHT22;3735;50.136;11.062;2023-03-26T22:38:58;5.70;99.90
7388;DHT22;3735;50.136;11.062;2023-03-26T22:41:25;5.70;99.90
7388;DHT22;3735;50.136;11.062;2023-03-26T22:43:53;5.70;99.90
7388;DHT22;3735;50.136;11.062;2023-03-26T22:46:21;5.70;99.90
7388;DHT22;3735;50.136;11.062;2023-03-26T22:48:47;5.70;99.90
7388;DHT22;3735;50.136;11.062;2023-03-26T22:51:14;5.70;99.90